Time;durP1;ratioP1;P1;durP2;ratioP2;P2;SDS_P1;SDS_P2;PMS_P1;PMS_P2;Temp;Humidity;BMP_temperature;BMP_pressure;BME280_temperature;BME280_humidity;BME280_pressure;Samples;Min_cycle;Max_cycle;Signal;HPM_P1;HPM_P2
2022/01/09 00:02:50;;;;;;;4.43;1.30;;;6.70;99.90;;;;;;20940049;28;20040;-47
2022/01/09 00:12:51;;;;;;;3.55;1.40;;;6.80;99.90;;;;;;20924702;28;20599;-47
2022/01/09 00:22:53;;;;;;;4.05;1.00;;;6.80;99.90;;;;;;20933072;28;20056;-47
2022/01/09 00:32:54;;;;;;;6.82;1.48;;;6.80;99.90;;;;;;20939700;28;20602;-46
2022/01/09 00:42:55;;;;;;;7.50;3.03;;;6.80;99.90;;;;;;20916692;28;20048;-45
2022/01/09 00:52:56;;;;;;;15.73;2.70;;;6.80;99.90;;;;;;20936397;28;20197;-45
2022/01/09 01:02:58;;;;;;;10.18;1.58;;;6.80;99.90;;;;;;20943766;28;20048;-45
2022/01/09 01:12:59;;;;;;;8.93;1.92;;;6.70;99.90;;;;;;20942059;28;20170;-45
2022/01/09 01:23:04;;;;;;;6.63;1.27;;;6.80;99.90;;;;;;20921313;28;20526;-45
2022/01/09 01:33:05;;;;;;;10.98;1.33;;;6.70;99.90;;;;;;20925481;28;20040;-45
2022/01/09 01:43:07;;;;;;;7.45;1.17;;;6.60;99.90;;;;;;20923926;28;20533;-45
2022/01/09 01:53:14;;;;;;;3.67;1.13;;;6.70;99.90;;;;;;20925317;28;20036;-45
2022/01/09 02:03:15;;;;;;;6.97;1.17;;;6.70;99.90;;;;;;20929289;28;20033;-45
2022/01/09 02:13:18;;;;;;;6.55;2.50;;;6.60;99.90;;;;;;20916802;28;20481;-45
2022/01/09 02:23:20;;;;;;;5.00;0.95;;;6.70;99.90;;;;;;20889384;28;20055;-45
2022/01/09 02:33:21;;;;;;;2.90;0.85;;;6.70;99.90;;;;;;20886950;28;20136;-45
2022/01/09 02:43:23;;;;;;;9.38;1.40;;;6.60;99.90;;;;;;20871021;28;20047;-45
2022/01/09 02:53:26;;;;;;;2.65;2.05;;;6.60;99.90;;;;;;20870482;28;20047;-45
2022/01/09 03:03:27;;;;;;;10.02;1.00;;;6.50;99.90;;;;;;20872050;28;20044;-45
2022/01/09 03:13:29;;;;;;;3.13;0.75;;;6.50;99.90;;;;;;20876597;28;20039;-45
2022/01/09 03:23:30;;;;;;;1.48;0.85;;;6.50;99.90;;;;;;20877671;28;20037;-45
2022/01/09 03:33:31;;;;;;;5.07;0.80;;;6.50;99.90;;;;;;21384702;23;20043;-44
2022/01/09 03:43:32;;;;;;;8.02;1.50;;;6.50;99.90;;;;;;20781919;28;20124;-44
2022/01/09 03:53:33;;;;;;;3.17;0.80;;;6.40;99.90;;;;;;20807221;28;20045;-44
2022/01/09 04:03:35;;;;;;;5.78;0.85;;;6.30;99.90;;;;;;20808451;28;20044;-44
2022/01/09 04:13:37;;;;;;;2.38;0.80;;;6.30;99.90;;;;;;20797987;28;20053;-44
2022/01/09 04:23:38;;;;;;;2.33;0.50;;;6.20;99.90;;;;;;20797377;28;20037;-44
2022/01/09 04:33:41;;;;;;;4.00;0.98;;;6.20;99.90;;;;;;20803269;28;20380;-44
2022/01/09 04:43:44;;;;;;;1.38;0.55;;;6.20;99.90;;;;;;20805182;28;20066;-44
2022/01/09 04:53:45;;;;;;;2.83;0.50;;;6.10;99.90;;;;;;20803818;28;20051;-44
2022/01/09 05:03:47;;;;;;;7.78;1.17;;;6.10;99.90;;;;;;20789789;28;20060;-44
2022/01/09 05:13:48;;;;;;;3.00;0.65;;;6.10;99.90;;;;;;20783726;28;20048;-44
2022/01/09 05:23:49;;;;;;;2.03;0.80;;;6.10;99.90;;;;;;20786051;28;20058;-44
2022/01/09 05:33:50;;;;;;;4.65;0.70;;;6.10;99.90;;;;;;20780717;28;20046;-44
2022/01/09 05:43:51;;;;;;;3.58;0.50;;;6.00;99.90;;;;;;20799214;28;20052;-44
2022/01/09 05:53:52;;;;;;;2.38;0.63;;;5.80;99.90;;;;;;20780083;28;20036;-44
2022/01/09 06:03:53;;;;;;;2.78;0.55;;;5.60;99.90;;;;;;20811165;28;20056;-44
2022/01/09 06:13:55;;;;;;;6.63;2.00;;;5.50;99.90;;;;;;20798841;28;20037;-44
2022/01/09 06:23:56;;;;;;;1.42;0.35;;;5.40;99.90;;;;;;20800342;28;20045;-44
2022/01/09 06:33:57;;;;;;;2.40;0.57;;;5.30;99.90;;;;;;20783472;28;20044;-44
2022/01/09 06:43:58;;;;;;;2.88;0.73;;;5.20;99.90;;;;;;20795896;28;20048;-44
2022/01/09 06:54:00;;;;;;;2.35;0.77;;;5.20;99.90;;;;;;20789646;28;20030;-44
2022/01/09 07:04:01;;;;;;;2.35;0.50;;;5.10;99.90;;;;;;20764577;28;20045;-44
2022/01/09 07:14:02;;;;;;;2.95;0.52;;;4.90;99.90;;;;;;20820457;28;20048;-44
2022/01/09 07:24:04;;;;;;;9.15;0.68;;;4.80;99.90;;;;;;21172022;23;20039;-43
2022/01/09 07:34:05;;;;;;;2.83;0.50;;;4.80;99.90;;;;;;20774874;28;20048;-44
2022/01/09 07:44:06;;;;;;;5.18;0.43;;;4.90;99.90;;;;;;20823278;28;20781;-43
2022/01/09 07:54:07;;;;;;;0.75;0.35;;;5.00;99.90;;;;;;20783740;28;20048;-44
2022/01/09 08:04:08;;;;;;;1.85;0.52;;;5.00;99.90;;;;;;20804011;28;20040;-44
2022/01/09 08:14:09;;;;;;;0.73;0.20;;;4.90;99.90;;;;;;20807581;28;20056;-44
2022/01/09 08:24:11;;;;;;;2.03;0.45;;;4.80;99.90;;;;;;20826700;28;20053;-46
2022/01/09 08:34:12;;;;;;;2.90;0.38;;;4.80;99.90;;;;;;20837101;28;20036;-44
2022/01/09 08:44:13;;;;;;;8.50;0.47;;;5.00;99.90;;;;;;20838776;28;20049;-44
2022/01/09 08:54:16;;;;;;;6.15;0.85;;;5.10;99.90;;;;;;20835277;28;20044;-44
2022/01/09 09:04:17;;;;;;;0.50;0.20;;;5.20;99.90;;;;;;20829397;28;20049;-44
2022/01/09 09:14:20;;;;;;;1.92;0.70;;;5.20;99.90;;;;;;20832876;28;20033;-44
2022/01/09 09:24:21;;;;;;;3.63;0.70;;;5.30;99.90;;;;;;20828310;28;20056;-44
2022/01/09 09:34:22;;;;;;;3.10;0.90;;;5.50;99.90;;;;;;20829031;28;20409;-44
2022/01/09 09:44:27;;;;;;;4.68;0.80;;;5.70;99.90;;;;;;20807008;28;20057;-44
2022/01/09 09:54:28;;;;;;;5.55;0.82;;;6.10;99.90;;;;;;20827778;28;20025;-44
2022/01/09 10:04:29;;;;;;;6.00;0.50;;;6.40;99.90;;;;;;20808377;28;20397;-44
2022/01/09 10:14:33;;;;;;;3.55;0.40;;;6.80;99.90;;;;;;20825213;28;20036;-44
2022/01/09 10:24:34;;;;;;;2.53;0.65;;;6.80;99.90;;;;;;20813157;28;20061;-44
2022/01/09 10:34:35;;;;;;;5.15;0.50;;;6.80;99.90;;;;;;20826435;28;20045;-44
2022/01/09 10:44:38;;;;;;;2.78;0.60;;;6.80;99.90;;;;;;20845047;28;20052;-44
2022/01/09 10:54:41;;;;;;;1.60;0.38;;;6.90;99.90;;;;;;20845011;28;20049;-44
2022/01/09 11:04:48;;;;;;;1.52;0.50;;;6.60;99.90;;;;;;20816865;28;20056;-44
2022/01/09 11:47:00;;;;;;;1.88;0.55;;;9.20;99.90;;;;;;20408304;24;20058;-45
2022/01/09 11:57:08;;;;;;;2.70;0.83;;;9.40;99.90;;;;;;19893080;29;20050;-45
2022/01/09 12:07:11;;;;;;;15.18;1.10;;;9.80;99.90;;;;;;19899163;29;20631;-45
2022/01/09 12:17:26;;;;;;;5.80;1.70;;;9.50;99.90;;;;;;19910833;29;20071;-45
2022/01/09 12:27:43;;;;;;;4.30;0.65;;;9.90;99.90;;;;;;19911998;29;20042;-45
2022/01/09 12:37:52;;;;;;;3.43;0.50;;;9.30;99.90;;;;;;19912826;29;20058;-45
2022/01/09 12:47:55;;;;;;;13.82;1.83;;;9.60;99.90;;;;;;19908612;29;20050;-45
2022/01/09 12:57:56;;;;;;;6.45;0.85;;;10.00;99.90;;;;;;19905886;29;20085;-45
2022/01/09 13:07:58;;;;;;;3.00;1.42;;;10.20;99.90;;;;;;19890998;29;20047;-45
2022/01/09 13:18:00;;;;;;;4.47;0.77;;;10.40;99.90;;;;;;19900994;29;20419;-45
2022/01/09 13:28:01;;;;;;;2.47;0.50;;;10.30;99.90;;;;;;19887092;29;20042;-45
2022/01/09 13:38:02;;;;;;;3.08;0.88;;;10.10;99.90;;;;;;19884778;29;20054;-45
2022/01/09 13:48:05;;;;;;;2.03;0.47;;;9.90;99.90;;;;;;19830676;29;20079;-45
2022/01/09 13:58:14;;;;;;;3.90;0.90;;;8.90;99.90;;;;;;19885186;29;20107;-45
2022/01/09 14:08:15;;;;;;;1.85;0.60;;;8.10;99.90;;;;;;19851671;29;20109;-44
2022/01/09 14:18:22;;;;;;;3.75;0.70;;;7.90;99.90;;;;;;19860312;29;20512;-45
2022/01/09 14:28:24;;;;;;;2.35;0.30;;;7.80;99.90;;;;;;19855934;29;20059;-44
2022/01/09 14:38:32;;;;;;;9.50;0.88;;;7.60;99.90;;;;;;19856397;29;20085;-44
2022/01/09 14:48:36;;;;;;;6.35;1.35;;;7.40;99.90;;;;;;19848983;29;20054;-44
2022/01/09 14:58:38;;;;;;;8.43;0.73;;;7.30;99.90;;;;;;19856473;29;20381;-44
2022/01/09 15:08:39;;;;;;;6.00;0.93;;;7.30;99.90;;;;;;19847744;29;20114;-45
2022/01/09 15:18:40;;;;;;;3.83;0.73;;;7.20;99.90;;;;;;19856084;29;20058;-44
2022/01/09 15:28:43;;;;;;;4.20;0.60;;;7.00;99.90;;;;;;19867704;29;20054;-44
2022/01/09 15:38:44;;;;;;;4.43;1.58;;;6.80;99.90;;;;;;19871792;29;20066;-44
2022/01/09 15:48:50;;;;;;;1.77;0.47;;;6.50;99.90;;;;;;19899338;29;20381;-45
2022/01/09 15:58:51;;;;;;;3.47;0.70;;;6.30;99.90;;;;;;19926859;29;20057;-44
2022/01/09 16:09:05;;;;;;;4.60;0.77;;;6.10;99.90;;;;;;19916964;29;20554;-45
2022/01/09 16:19:07;;;;;;;2.40;1.10;;;5.90;99.90;;;;;;19909586;29;20066;-44
2022/01/09 16:29:13;;;;;;;3.60;1.50;;;5.60;99.90;;;;;;19892195;29;20574;-44
2022/01/09 16:39:15;;;;;;;3.50;1.50;;;5.40;99.90;;;;;;19864033;29;20415;-44
2022/01/09 16:49:18;;;;;;;3.90;1.33;;;5.30;99.90;;;;;;19860193;29;20050;-44
2022/01/09 16:59:19;;;;;;;4.22;1.20;;;5.40;99.90;;;;;;19860415;29;20666;-44
2022/01/09 17:09:20;;;;;;;4.60;1.25;;;5.30;99.90;;;;;;19861934;29;20045;-44
2022/01/09 17:19:22;;;;;;;2.42;1.48;;;5.10;99.90;;;;;;19863621;29;20081;-44
2022/01/09 17:29:23;;;;;;;4.45;1.85;;;5.00;99.90;;;;;;19870604;29;20039;-44
2022/01/09 17:39:25;;;;;;;6.38;0.90;;;4.70;99.90;;;;;;19872648;29;20062;-44
2022/01/09 17:49:26;;;;;;;2.95;1.05;;;4.50;99.90;;;;;;19857344;29;20054;-44
2022/01/09 17:59:28;;;;;;;3.80;1.27;;;4.50;99.90;;;;;;19866798;29;20074;-44
2022/01/09 18:09:29;;;;;;;4.13;1.33;;;4.40;99.90;;;;;;19888597;29;20053;-44
2022/01/09 18:19:30;;;;;;;3.78;2.45;;;4.20;99.90;;;;;;19916593;29;20687;-44
2022/01/09 18:29:31;;;;;;;9.00;2.42;;;4.10;99.90;;;;;;19908909;29;20051;-44
2022/01/09 18:39:33;;;;;;;8.48;2.88;;;4.10;99.90;;;;;;19902204;29;20102;-44
2022/01/09 18:49:34;;;;;;;5.13;1.80;;;4.00;99.90;;;;;;19898722;29;20058;-44
2022/01/09 18:59:35;;;;;;;5.22;2.15;;;4.10;99.90;;;;;;19904645;29;20706;-46
2022/01/09 19:09:37;;;;;;;8.25;2.33;;;4.10;99.90;;;;;;19912175;29;20053;-44
2022/01/09 19:19:40;;;;;;;5.60;1.88;;;4.00;99.90;;;;;;19905635;29;20062;-46
2022/01/09 19:29:42;;;;;;;10.07;3.60;;;4.00;99.90;;;;;;19892835;29;20050;-44
2022/01/09 19:39:43;;;;;;;5.30;2.40;;;4.00;99.90;;;;;;19905638;29;20047;-46
2022/01/09 19:49:44;;;;;;;5.05;2.72;;;4.00;99.90;;;;;;19897708;29;20045;-44
2022/01/09 19:59:46;;;;;;;4.18;1.77;;;4.00;99.90;;;;;;19907987;29;20062;-44
2022/01/09 20:09:47;;;;;;;3.80;1.67;;;4.00;99.90;;;;;;19911594;29;20042;-44
2022/01/09 20:19:48;;;;;;;5.70;1.58;;;3.90;99.90;;;;;;19926143;29;20539;-44
2022/01/09 20:29:49;;;;;;;2.35;1.23;;;3.80;99.90;;;;;;19910358;29;20054;-44
2022/01/09 20:39:51;;;;;;;5.88;2.65;;;3.70;99.90;;;;;;19911793;29;20055;-44
2022/01/09 20:49:52;;;;;;;3.20;1.58;;;3.60;99.90;;;;;;19918227;29;20057;-45
2022/01/09 20:59:53;;;;;;;3.78;1.65;;;3.60;99.90;;;;;;19900801;29;20102;-44
2022/01/09 21:09:54;;;;;;;4.10;1.88;;;3.60;99.90;;;;;;19903859;29;20084;-45
2022/01/09 21:19:55;;;;;;;6.18;2.58;;;3.60;99.90;;;;;;19902452;29;20047;-44
2022/01/09 21:29:57;;;;;;;8.68;3.05;;;3.60;99.90;;;;;;19921416;29;20089;-45
2022/01/09 21:40:00;;;;;;;6.72;2.38;;;3.50;99.90;;;;;;19916954;29;20077;-44
2022/01/09 21:50:06;;;;;;;5.82;3.50;;;3.50;99.90;;;;;;19917032;29;20350;-44
2022/01/09 22:00:10;;;;;;;5.00;1.77;;;3.40;99.90;;;;;;19915564;29;20041;-45
2022/01/09 22:10:12;;;;;;;4.18;1.83;;;3.40;99.90;;;;;;19915605;29;20426;-44
2022/01/09 22:20:13;;;;;;;3.42;1.20;;;3.20;99.90;;;;;;19926818;29;20269;-44
2022/01/09 22:30:18;;;;;;;7.80;1.60;;;3.30;99.90;;;;;;19906206;29;20498;-44
2022/01/09 22:40:19;;;;;;;3.97;1.75;;;3.20;99.90;;;;;;19906386;29;20164;-44
2022/01/09 22:50:20;;;;;;;5.30;1.77;;;3.00;99.90;;;;;;19905643;29;20053;-47
2022/01/09 23:00:46;;;;;;;5.45;1.60;;;3.00;99.90;;;;;;19907775;29;20054;-44
2022/01/09 23:10:47;;;;;;;4.90;1.77;;;2.90;99.90;;;;;;19906176;29;20047;-44
2022/01/09 23:20:48;;;;;;;9.02;3.70;;;2.90;99.90;;;;;;19907217;29;20054;-45
2022/01/09 23:30:49;;;;;;;2.67;1.48;;;2.80;99.90;;;;;;19885244;29;20058;-45
2022/01/09 23:40:51;;;;;;;3.45;1.67;;;2.90;99.90;;;;;;19889929;29;20050;-44
2022/01/09 23:50:55;;;;;;;5.85;1.70;;;2.80;99.90;;;;;;19900039;29;20393;-44
